createdAt,value
2023-03-20T00:02:53.300Z,68.67
2023-03-20T00:07:55.767Z,68.75
2023-03-20T00:12:57.570Z,68.93
2023-03-20T00:17:59.373Z,68.94
2023-03-20T00:23:01.246Z,69.16
2023-03-20T00:28:23.497Z,69.34
2023-03-20T00:33:27.222Z,69.29
2023-03-20T00:38:29.246Z,69.32
2023-03-20T00:43:32.004Z,69.33
2023-03-20T00:48:34.074Z,69.34
2023-03-20T00:53:36.371Z,69.27
2023-03-20T00:58:38.882Z,69.20
2023-03-20T01:03:43.391Z,69.23
2023-03-20T01:08:46.323Z,69.23
2023-03-20T01:13:48.309Z,69.24
2023-03-20T01:18:51.554Z,69.41
2023-03-20T01:23:53.438Z,69.36
2023-03-20T01:28:55.323Z,69.17
2023-03-20T01:33:57.706Z,69.20
2023-03-20T01:38:59.634Z,69.22
2023-03-20T01:44:18.326Z,69.23
2023-03-20T01:49:21.723Z,69.15
2023-03-20T01:54:33.888Z,69.41
2023-03-20T01:59:49.223Z,69.15
2023-03-20T02:04:57.269Z,69.06
2023-03-20T02:10:01.177Z,69.22
2023-03-20T02:15:16.921Z,69.13
2023-03-20T02:21:06.727Z,69.09
2023-03-20T02:26:24.486Z,69.08
2023-03-20T02:32:00.570Z,69.11
2023-03-20T02:37:24.119Z,69.16
2023-03-20T02:42:33.793Z,69.09
2023-03-20T02:48:00.169Z,69.02
2023-03-20T02:53:20.806Z,69.33
2023-03-20T02:58:35.540Z,69.25
2023-03-20T03:03:57.291Z,69.50
2023-03-20T03:09:12.814Z,69.36
2023-03-20T03:14:32.997Z,69.15
2023-03-20T03:19:38.117Z,69.37
2023-03-20T03:24:47.994Z,69.23
2023-03-20T03:29:57.916Z,69.26
2023-03-20T03:35:01.636Z,69.22
2023-03-20T03:40:15.839Z,69.23
2023-03-20T03:45:34.025Z,69.29
2023-03-20T03:50:48.855Z,69.38
2023-03-20T03:56:00.143Z,69.42
2023-03-20T04:01:05.133Z,69.29
2023-03-20T04:06:13.055Z,69.50
2023-03-20T04:11:18.556Z,69.54
2023-03-20T04:16:23.102Z,69.64
2023-03-20T04:21:25.950Z,69.70
2023-03-20T04:26:27.958Z,69.80
2023-03-20T04:31:31.495Z,69.67
2023-03-20T04:37:00.997Z,69.78
2023-03-20T04:42:17.829Z,69.96
2023-03-20T04:47:20.921Z,69.93
2023-03-20T04:52:26.827Z,69.86
2023-03-20T04:57:28.786Z,69.83
2023-03-20T05:02:30.681Z,69.98
2023-03-20T05:07:33.243Z,69.88
2023-03-20T05:12:39.204Z,69.97
2023-03-20T05:18:08.298Z,69.75
2023-03-20T05:23:33.690Z,69.81
2023-03-20T05:29:01.877Z,69.78
2023-03-20T05:34:17.480Z,69.84
2023-03-20T05:39:34.755Z,69.85
2023-03-20T05:45:03.219Z,69.82
2023-03-20T05:50:23.887Z,69.93
2023-03-20T05:55:33.322Z,69.87
2023-03-20T06:00:50.068Z,69.96
2023-03-20T06:06:27.257Z,70.01
2023-03-20T06:11:29.416Z,70.07
2023-03-20T06:16:31.444Z,70.03
2023-03-20T06:21:34.339Z,70.19
2023-03-20T06:26:37.036Z,70.30
2023-03-20T06:31:44.342Z,70.44
2023-03-20T06:36:56.409Z,70.46
2023-03-20T06:41:59.287Z,70.51
2023-03-20T06:47:01.872Z,70.70
2023-03-20T06:52:04.425Z,70.73
2023-03-20T06:57:07.740Z,70.76
2023-03-20T07:02:11.886Z,70.87
2023-03-20T07:07:14.457Z,71.13
2023-03-20T07:12:20.055Z,71.13
2023-03-20T07:17:23.619Z,71.12
2023-03-20T07:22:28.616Z,71.08
2023-03-20T07:27:50.719Z,71.28
2023-03-20T07:32:56.239Z,71.23
2023-03-20T07:38:03.220Z,71.24
2023-03-20T07:43:06.078Z,71.12
2023-03-20T07:48:28.173Z,70.98
2023-03-20T07:53:30.464Z,71.08
2023-03-20T07:58:32.269Z,71.05
2023-03-20T08:03:38.912Z,71.26
2023-03-20T08:08:41.451Z,71.38
2023-03-20T08:13:43.678Z,71.29
2023-03-20T08:18:45.737Z,71.26
2023-03-20T08:23:47.936Z,71.22
2023-03-20T08:28:51.460Z,71.30
2023-03-20T08:33:56.701Z,71.57
2023-03-20T08:38:58.569Z,71.60
2023-03-20T08:44:01.796Z,71.49
2023-03-20T08:49:05.298Z,71.50
2023-03-20T08:54:07.769Z,71.52
2023-03-20T08:59:09.508Z,71.40
2023-03-20T09:04:13.145Z,71.32
2023-03-20T09:09:16.134Z,71.26
2023-03-20T09:14:18.641Z,71.33
2023-03-20T09:19:20.623Z,71.62
2023-03-20T09:24:22.937Z,71.38
2023-03-20T09:29:25.095Z,71.37
2023-03-20T09:34:27.250Z,71.26
2023-03-20T09:39:30.140Z,71.24
2023-03-20T09:44:42.613Z,71.09
2023-03-20T09:50:04.998Z,70.65
2023-03-20T09:55:15.610Z,70.84
2023-03-20T10:00:20.367Z,70.90
2023-03-20T10:05:38.653Z,70.92
2023-03-20T10:11:02.740Z,71.02
2023-03-20T10:16:28.776Z,71.19
2023-03-20T10:21:45.837Z,71.03
2023-03-20T10:26:52.823Z,71.13
2023-03-20T10:32:10.553Z,71.06
2023-03-20T10:37:44.034Z,71.24
2023-03-20T10:42:48.875Z,71.08
2023-03-20T10:47:52.704Z,70.92
2023-03-20T10:52:57.193Z,70.71
2023-03-20T10:58:11.986Z,70.64
2023-03-20T11:03:23.084Z,70.55
2023-03-20T11:08:30.820Z,70.20
2023-03-20T11:13:43.267Z,69.95
2023-03-20T11:18:45.616Z,69.61
2023-03-20T11:23:48.330Z,69.52
2023-03-20T11:28:59.797Z,69.66
2023-03-20T11:34:04.578Z,69.69
2023-03-20T11:39:15.711Z,69.88
2023-03-20T11:44:29.522Z,69.98
2023-03-20T11:49:50.656Z,70.32
2023-03-20T11:54:56.936Z,70.23
2023-03-20T12:00:02.876Z,70.29
2023-03-20T12:05:40.068Z,70.40
2023-03-20T12:10:46.140Z,70.39
2023-03-20T12:16:13.300Z,70.50
2023-03-20T12:21:33.351Z,70.41
2023-03-20T12:27:01.367Z,70.31
2023-03-20T12:32:09.069Z,70.12
2023-03-20T12:37:13.438Z,70.19
2023-03-20T12:42:39.679Z,70.09
2023-03-20T12:47:53.767Z,69.88
2023-03-20T12:53:04.659Z,70.00
2023-03-20T12:58:27.717Z,70.16
2023-03-20T13:03:41.745Z,70.07
2023-03-20T13:08:58.781Z,70.37
2023-03-20T13:14:11.345Z,70.13
2023-03-20T13:19:26.081Z,70.25
2023-03-20T13:24:49.929Z,70.18
2023-03-20T13:30:12.869Z,70.36
2023-03-20T13:35:29.900Z,70.43
2023-03-20T13:40:44.302Z,70.53
2023-03-20T13:45:50.468Z,70.39
2023-03-20T13:50:56.367Z,70.26
2023-03-20T13:56:14.343Z,70.22
2023-03-20T14:01:38.794Z,70.11
2023-03-20T14:06:45.195Z,70.09
2023-03-20T14:11:47.149Z,70.12
2023-03-20T14:16:49.028Z,70.16
2023-03-20T14:21:54.684Z,70.37
2023-03-20T14:26:59.289Z,70.56
2023-03-20T14:32:04.146Z,71.04
2023-03-20T14:37:28.881Z,71.50
2023-03-20T14:42:42.599Z,71.94
2023-03-20T14:48:05.970Z,72.05
2023-03-20T14:53:26.904Z,72.27
2023-03-20T14:58:37.480Z,72.14
2023-03-20T15:03:41.650Z,72.13
2023-03-20T15:08:54.046Z,72.58
2023-03-20T15:13:58.435Z,72.81
2023-03-20T15:19:01.415Z,72.94
2023-03-20T15:24:03.870Z,73.02
2023-03-20T15:29:11.501Z,73.08
2023-03-20T15:34:21.831Z,72.96
2023-03-20T15:39:29.973Z,73.14
2023-03-20T15:44:38.070Z,73.17
2023-03-20T15:49:41.835Z,72.97
2023-03-20T15:54:44.155Z,73.06
2023-03-20T15:59:46.251Z,73.06
2023-03-20T16:04:52.412Z,73.03
2023-03-20T16:09:54.376Z,73.03
2023-03-20T16:14:58.328Z,73.15
2023-03-20T16:20:00.931Z,73.14
2023-03-20T16:25:03.042Z,73.29
2023-03-20T16:30:09.521Z,73.37
2023-03-20T16:35:26.505Z,73.37
2023-03-20T16:40:28.692Z,73.15
2023-03-20T16:45:33.782Z,73.18
2023-03-20T16:50:38.696Z,73.33
2023-03-20T16:55:46.804Z,73.45
2023-03-20T17:00:51.339Z,73.29
2023-03-20T17:06:00.101Z,73.28
2023-03-20T17:11:11.872Z,73.31
2023-03-20T17:16:20.259Z,73.18
2023-03-20T17:21:22.221Z,73.15
2023-03-20T17:26:24.768Z,73.13
2023-03-20T17:31:26.809Z,73.19
2023-03-20T17:36:32.107Z,72.98
2023-03-20T17:41:33.976Z,73.04
2023-03-20T17:46:49.781Z,73.09
2023-03-20T17:51:57.727Z,73.10
2023-03-20T17:56:59.515Z,73.00
2023-03-20T18:02:01.313Z,73.06
2023-03-20T18:07:04.599Z,73.02
2023-03-20T18:12:10.430Z,73.14
2023-03-20T18:17:13.734Z,73.35
2023-03-20T18:22:15.514Z,73.16
2023-03-20T18:27:17.561Z,73.09
2023-03-20T18:32:19.471Z,73.11
2023-03-20T18:37:22.229Z,73.15
2023-03-20T18:42:24.156Z,73.20
2023-03-20T18:47:26.186Z,73.23
2023-03-20T18:52:28.056Z,73.28
2023-03-20T18:57:29.875Z,73.46
2023-03-20T19:02:31.722Z,73.30
2023-03-20T19:07:33.603Z,73.24
2023-03-20T19:12:37.203Z,73.35
2023-03-20T19:17:39.023Z,73.31
2023-03-20T19:22:43.191Z,73.28
2023-03-20T19:27:46.349Z,73.18
2023-03-20T19:32:48.271Z,73.23
2023-03-20T19:37:50.363Z,73.37
2023-03-20T19:43:02.127Z,73.24
2023-03-20T19:48:18.729Z,73.35
2023-03-20T19:53:24.984Z,73.34
2023-03-20T19:58:27.136Z,73.29
2023-03-20T20:03:29.486Z,73.40
2023-03-20T20:08:45.839Z,73.39
2023-03-20T20:14:05.637Z,73.28
2023-03-20T20:19:12.482Z,73.29
2023-03-20T20:24:16.186Z,73.22
2023-03-20T20:29:19.121Z,73.25
2023-03-20T20:39:45.582Z,73.42
2023-03-20T20:44:47.846Z,73.27
2023-03-20T20:49:49.711Z,73.39
2023-03-20T20:54:51.509Z,73.07
2023-03-20T20:59:59.513Z,73.14
2023-03-20T21:05:01.787Z,73.17
2023-03-20T21:10:05.889Z,73.17
2023-03-20T21:15:08.432Z,73.13
2023-03-20T21:20:11.784Z,73.28
2023-03-20T21:25:18.710Z,73.43
2023-03-20T21:30:21.564Z,73.33
2023-03-20T21:35:26.594Z,73.17
2023-03-20T21:40:28.420Z,73.13
2023-03-20T21:51:39.726Z,73.25
2023-03-20T21:56:59.847Z,73.20
2023-03-20T22:02:00.851Z,73.34
2023-03-20T22:07:38.451Z,73.36
2023-03-20T22:40:02.149Z,73.62
2023-03-20T22:45:00.742Z,73.83
2023-03-20T22:49:58.721Z,73.73
2023-03-20T22:55:00.511Z,73.79
2023-03-20T23:00:02.886Z,73.75
2023-03-20T23:05:04.932Z,73.77
2023-03-20T23:10:09.751Z,73.93
2023-03-20T23:15:11.701Z,74.01
2023-03-20T23:20:18.723Z,74.13
2023-03-20T23:25:36.333Z,74.22
2023-03-20T23:30:56.662Z,74.35
2023-03-20T23:36:16.175Z,74.63
2023-03-20T23:41:19.074Z,74.64
2023-03-20T23:46:21.312Z,74.63
2023-03-20T23:51:23.218Z,74.66
2023-03-20T23:56:25.521Z,74.71
